Archival Weather

Chicago O'Hare International

Chicago, Illinois (KORD)

Report from: Wednesday, December 28, 2022 8:51 PM CST
Current time: Friday, June 14, 2024 8:36 AM CDT

Current weather – Weather history – Daily summaries
Weather forecast

Temperature6.7°C (44.1°F)
Wind chill2.3°C (36.2°F)
Dew point1.1°C (34.0°F)
Winds 16 kts (8.2 m/s, 18.4 mph) South (180°)
Wind gusts 29 kts (14.9 m/s, 33.4 mph)
Peak wind 34 kts (17.5 m/s, 39.1 mph) South (180°) at 01:55
Visibility10 mi. (16.1 km)
Clouds Ceiling: Broken clouds 15,000 ft. (4,572 m)
Broken clouds 25,000 ft. (7,620 m)
Broken clouds 35,000 ft. (10,668 m)
Altimeter29.76 in.Hg (1008 mB)
Relative humidity67 %
Density altitude-728 ft. (-222 m)
Sea-level pressure100.8 kPa (1008 mB, 29.77 in.Hg)
Remarks Automated weather observing station with precipitation discriminator
Pressure rising more quickly
Flight conditions Visual Meteorological Conditions
Raw dataKORD 290251Z 18016G29KT 10SM BKN150 BKN250 BKN350 07/01 A2976 RMK AO2 PK WND 18034/0155 SLP082 T00670011 53009
An error has occurred. This application may no longer respond until reloaded. Reload 🗙